Terminal Aerodrome Forecast
Issued by NWS

Home | Current Version | Previous Version | Text Only | Print | Product List | Glossary On
Versions: 1 2 3 4 5 6 7 8 9 10 11 12 13 14 15 16 17 18
000
FTUS43 KPAH 010500
TAFCGI
TAF
KCGI 010520Z 0106/0206 12003KT P6SM SCT050 OVC100
     FM010800 17005KT P6SM SCT030 BKN050
     FM011100 18012G20KT 3SM -RA BR OVC020
      TEMPO 0113/0117 1 1/2SM -RA BR OVC007
     FM020000 28015G23KT P6SM OVC015=

USA.gov is the U.S. government's official web portal to all federal, state and local government web resources and services.